Pierces Corner, New York
Current Conditions -  °F | °C
As of 3:58 AM on Sunday 21 Dec 2014 (Local Time) from KGTB Reporting Station
Overcast Overcast  
Wind Chill: -5°   Ceiling: 8000
Heat Index: -5°   Visibility: 10mi
Dew Point: -9°   Wind: 3mph
Humidity: 75%   Direction: 180°S
Pressure: 30.27"   Gusts: NA
Location:  44.3309°N, 75.4775°W
Report Text: KGTB 210858Z AUTO 18003KT 10SM OVC080 M05/M08 A3027 RMK AO2 SLP262 T10461085 53003
Loading
Personal Weather Stations






























Interactive Weather Map New forecast layout! Learn more

10-Day Weather Forecast

Advertisements
Track Severe Weather on mobile